sensor_id;sensor_type;location;lat;lon;timestamp;temperature;humidity
85036;DHT22;75357;49.780;9.448;2024-02-26T00:00:28;5.60;76.80
85036;DHT22;75357;49.780;9.448;2024-02-26T00:03:03;5.60;76.80
85036;DHT22;75357;49.780;9.448;2024-02-26T00:05:31;5.60;76.40
85036;DHT22;75357;49.780;9.448;2024-02-26T00:08:01;5.70;76.20
85036;DHT22;75357;49.780;9.448;2024-02-26T00:10:31;5.80;76.30
85036;DHT22;75357;49.780;9.448;2024-02-26T00:12:59;5.80;76.30
85036;DHT22;75357;49.780;9.448;2024-02-26T00:15:28;5.80;76.20
85036;DHT22;75357;49.780;9.448;2024-02-26T00:17:56;5.80;76.00
85036;DHT22;75357;49.780;9.448;2024-02-26T00:20:24;5.90;76.10
85036;DHT22;75357;49.780;9.448;2024-02-26T00:22:53;5.90;75.90
85036;DHT22;75357;49.780;9.448;2024-02-26T00:25:22;5.80;75.90
85036;DHT22;75357;49.780;9.448;2024-02-26T00:27:50;5.80;76.10
85036;DHT22;75357;49.780;9.448;2024-02-26T00:30:18;5.80;77.20
85036;DHT22;75357;49.780;9.448;2024-02-26T00:32:46;5.70;76.50
85036;DHT22;75357;49.780;9.448;2024-02-26T00:35:15;5.70;76.30
85036;DHT22;75357;49.780;9.448;2024-02-26T00:37:47;5.70;76.50
85036;DHT22;75357;49.780;9.448;2024-02-26T00:40:15;5.80;76.40
85036;DHT22;75357;49.780;9.448;2024-02-26T00:42:45;5.90;76.30
85036;DHT22;75357;49.780;9.448;2024-02-26T00:45:14;5.90;76.10
85036;DHT22;75357;49.780;9.448;2024-02-26T00:47:43;5.90;75.90
85036;DHT22;75357;49.780;9.448;2024-02-26T00:50:14;6.00;76.00
85036;DHT22;75357;49.780;9.448;2024-02-26T00:52:42;6.00;76.20
85036;DHT22;75357;49.780;9.448;2024-02-26T00:55:11;5.90;76.40
85036;DHT22;75357;49.780;9.448;2024-02-26T00:57:39;5.80;76.80
85036;DHT22;75357;49.780;9.448;2024-02-26T01:00:10;5.80;76.90
85036;DHT22;75357;49.780;9.448;2024-02-26T01:02:39;5.70;77.20
85036;DHT22;75357;49.780;9.448;2024-02-26T01:05:09;5.80;77.50
85036;DHT22;75357;49.780;9.448;2024-02-26T01:07:37;5.80;77.00
85036;DHT22;75357;49.780;9.448;2024-02-26T01:10:06;5.90;76.70
85036;DHT22;75357;49.780;9.448;2024-02-26T01:12:35;6.00;75.50
85036;DHT22;75357;49.780;9.448;2024-02-26T01:15:05;6.10;75.40
85036;DHT22;75357;49.780;9.448;2024-02-26T01:17:35;6.20;75.30
85036;DHT22;75357;49.780;9.448;2024-02-26T01:20:03;6.20;75.60
85036;DHT22;75357;49.780;9.448;2024-02-26T01:22:31;6.20;76.20
85036;DHT22;75357;49.780;9.448;2024-02-26T01:24:59;6.20;76.80
85036;DHT22;75357;49.780;9.448;2024-02-26T01:27:28;6.20;77.10
85036;DHT22;75357;49.780;9.448;2024-02-26T01:29:56;6.10;77.00
85036;DHT22;75357;49.780;9.448;2024-02-26T01:32:24;6.10;76.70
85036;DHT22;75357;49.780;9.448;2024-02-26T01:34:53;6.10;76.50
85036;DHT22;75357;49.780;9.448;2024-02-26T01:37:22;6.10;76.20
85036;DHT22;75357;49.780;9.448;2024-02-26T01:39:50;6.10;76.40
85036;DHT22;75357;49.780;9.448;2024-02-26T01:42:18;6.10;76.20
85036;DHT22;75357;49.780;9.448;2024-02-26T01:44:46;6.10;76.00
85036;DHT22;75357;49.780;9.448;2024-02-26T01:47:15;6.20;75.70
85036;DHT22;75357;49.780;9.448;2024-02-26T01:49:44;6.20;76.00
85036;DHT22;75357;49.780;9.448;2024-02-26T01:52:14;6.20;75.90
85036;DHT22;75357;49.780;9.448;2024-02-26T01:54:42;6.10;76.10
85036;DHT22;75357;49.780;9.448;2024-02-26T01:57:13;6.10;76.30
85036;DHT22;75357;49.780;9.448;2024-02-26T01:59:42;6.20;76.00
85036;DHT22;75357;49.780;9.448;2024-02-26T02:02:11;6.20;76.00
85036;DHT22;75357;49.780;9.448;2024-02-26T02:04:40;6.20;75.20
85036;DHT22;75357;49.780;9.448;2024-02-26T02:07:09;6.20;74.90
85036;DHT22;75357;49.780;9.448;2024-02-26T02:09:39;6.30;75.40
85036;DHT22;75357;49.780;9.448;2024-02-26T02:12:08;6.30;75.20
85036;DHT22;75357;49.780;9.448;2024-02-26T02:14:36;6.20;75.30
85036;DHT22;75357;49.780;9.448;2024-02-26T02:17:07;6.20;75.40
85036;DHT22;75357;49.780;9.448;2024-02-26T02:19:35;6.20;75.40
85036;DHT22;75357;49.780;9.448;2024-02-26T02:22:04;6.20;75.00
85036;DHT22;75357;49.780;9.448;2024-02-26T02:24:33;6.20;74.90
85036;DHT22;75357;49.780;9.448;2024-02-26T02:27:01;6.20;74.90
85036;DHT22;75357;49.780;9.448;2024-02-26T02:29:29;6.20;75.20
85036;DHT22;75357;49.780;9.448;2024-02-26T02:31:58;6.20;75.20
85036;DHT22;75357;49.780;9.448;2024-02-26T02:34:28;6.20;75.10
85036;DHT22;75357;49.780;9.448;2024-02-26T02:36:56;6.20;74.60
85036;DHT22;75357;49.780;9.448;2024-02-26T02:39:26;6.30;74.40
85036;DHT22;75357;49.780;9.448;2024-02-26T02:41:54;6.30;74.80
85036;DHT22;75357;49.780;9.448;2024-02-26T02:44:22;6.20;74.20
85036;DHT22;75357;49.780;9.448;2024-02-26T02:46:50;6.30;73.80
85036;DHT22;75357;49.780;9.448;2024-02-26T02:49:20;6.30;74.00
85036;DHT22;75357;49.780;9.448;2024-02-26T02:51:50;6.30;74.00
85036;DHT22;75357;49.780;9.448;2024-02-26T02:54:20;6.20;74.30
85036;DHT22;75357;49.780;9.448;2024-02-26T02:56:49;6.20;74.20
85036;DHT22;75357;49.780;9.448;2024-02-26T02:59:18;6.20;74.40
85036;DHT22;75357;49.780;9.448;2024-02-26T03:01:46;6.30;74.10
85036;DHT22;75357;49.780;9.448;2024-02-26T03:04:14;6.20;74.00
85036;DHT22;75357;49.780;9.448;2024-02-26T03:06:42;6.20;74.80
85036;DHT22;75357;49.780;9.448;2024-02-26T03:09:10;6.30;74.30
85036;DHT22;75357;49.780;9.448;2024-02-26T03:11:38;6.30;74.10
85036;DHT22;75357;49.780;9.448;2024-02-26T03:14:08;6.30;73.80
85036;DHT22;75357;49.780;9.448;2024-02-26T03:16:36;6.30;73.80
85036;DHT22;75357;49.780;9.448;2024-02-26T03:19:04;6.30;74.40
85036;DHT22;75357;49.780;9.448;2024-02-26T03:21:33;6.30;73.80
85036;DHT22;75357;49.780;9.448;2024-02-26T03:24:03;6.20;74.00
85036;DHT22;75357;49.780;9.448;2024-02-26T03:26:31;6.20;74.50
85036;DHT22;75357;49.780;9.448;2024-02-26T03:28:59;6.10;74.80
85036;DHT22;75357;49.780;9.448;2024-02-26T03:31:30;6.10;74.70
85036;DHT22;75357;49.780;9.448;2024-02-26T03:33:58;6.10;74.50
85036;DHT22;75357;49.780;9.448;2024-02-26T03:36:28;6.10;74.90
85036;DHT22;75357;49.780;9.448;2024-02-26T03:38:56;6.10;75.10
85036;DHT22;75357;49.780;9.448;2024-02-26T03:41:25;6.10;75.10
85036;DHT22;75357;49.780;9.448;2024-02-26T03:43:54;6.10;74.80
85036;DHT22;75357;49.780;9.448;2024-02-26T03:46:22;6.00;75.10
85036;DHT22;75357;49.780;9.448;2024-02-26T03:48:51;6.00;75.30
85036;DHT22;75357;49.780;9.448;2024-02-26T03:51:19;6.10;74.80
85036;DHT22;75357;49.780;9.448;2024-02-26T03:53:48;6.00;74.90
85036;DHT22;75357;49.780;9.448;2024-02-26T03:56:16;6.00;75.20
85036;DHT22;75357;49.780;9.448;2024-02-26T03:58:44;6.00;75.10
85036;DHT22;75357;49.780;9.448;2024-02-26T04:01:12;6.00;75.10
85036;DHT22;75357;49.780;9.448;2024-02-26T04:03:40;6.00;74.30
85036;DHT22;75357;49.780;9.448;2024-02-26T04:06:10;6.10;74.60
85036;DHT22;75357;49.780;9.448;2024-02-26T04:08:41;6.00;74.40
85036;DHT22;75357;49.780;9.448;2024-02-26T04:11:09;6.00;74.30
85036;DHT22;75357;49.780;9.448;2024-02-26T04:13:37;6.10;74.20
85036;DHT22;75357;49.780;9.448;2024-02-26T04:16:06;6.10;74.10
85036;DHT22;75357;49.780;9.448;2024-02-26T04:18:34;6.20;74.00
85036;DHT22;75357;49.780;9.448;2024-02-26T04:21:03;6.10;73.50
85036;DHT22;75357;49.780;9.448;2024-02-26T04:23:35;6.10;73.80
85036;DHT22;75357;49.780;9.448;2024-02-26T04:26:05;6.10;74.20
85036;DHT22;75357;49.780;9.448;2024-02-26T04:28:33;6.10;74.20
85036;DHT22;75357;49.780;9.448;2024-02-26T04:31:01;6.10;74.40
85036;DHT22;75357;49.780;9.448;2024-02-26T04:33:29;6.00;74.30
85036;DHT22;75357;49.780;9.448;2024-02-26T04:35:58;5.90;74.40
85036;DHT22;75357;49.780;9.448;2024-02-26T04:38:26;6.00;74.50
85036;DHT22;75357;49.780;9.448;2024-02-26T04:40:55;6.00;74.10
85036;DHT22;75357;49.780;9.448;2024-02-26T04:43:23;6.10;74.10
85036;DHT22;75357;49.780;9.448;2024-02-26T04:45:51;6.00;74.10
85036;DHT22;75357;49.780;9.448;2024-02-26T04:48:20;6.00;74.20
85036;DHT22;75357;49.780;9.448;2024-02-26T04:50:48;6.00;74.30
85036;DHT22;75357;49.780;9.448;2024-02-26T04:53:16;5.90;74.60
85036;DHT22;75357;49.780;9.448;2024-02-26T04:55:44;5.90;74.60
85036;DHT22;75357;49.780;9.448;2024-02-26T04:58:14;5.90;74.20
85036;DHT22;75357;49.780;9.448;2024-02-26T05:00:42;5.80;74.50
85036;DHT22;75357;49.780;9.448;2024-02-26T05:03:10;5.80;74.90
85036;DHT22;75357;49.780;9.448;2024-02-26T05:05:40;5.80;74.90
85036;DHT22;75357;49.780;9.448;2024-02-26T05:08:08;5.90;74.50
85036;DHT22;75357;49.780;9.448;2024-02-26T05:10:37;5.90;74.30
85036;DHT22;75357;49.780;9.448;2024-02-26T05:13:07;6.00;74.10
85036;DHT22;75357;49.780;9.448;2024-02-26T05:15:37;6.00;74.20
85036;DHT22;75357;49.780;9.448;2024-02-26T05:18:05;6.00;73.30
85036;DHT22;75357;49.780;9.448;2024-02-26T05:20:34;6.00;73.30
85036;DHT22;75357;49.780;9.448;2024-02-26T05:23:04;6.10;73.60
85036;DHT22;75357;49.780;9.448;2024-02-26T05:25:32;6.00;73.90
85036;DHT22;75357;49.780;9.448;2024-02-26T05:28:01;6.00;74.20
85036;DHT22;75357;49.780;9.448;2024-02-26T05:30:29;6.10;73.80
85036;DHT22;75357;49.780;9.448;2024-02-26T05:32:59;6.10;73.60
85036;DHT22;75357;49.780;9.448;2024-02-26T05:35:27;6.10;73.50
85036;DHT22;75357;49.780;9.448;2024-02-26T05:37:55;6.10;73.40
85036;DHT22;75357;49.780;9.448;2024-02-26T05:40:24;6.20;73.70
85036;DHT22;75357;49.780;9.448;2024-02-26T05:42:52;6.10;73.70
85036;DHT22;75357;49.780;9.448;2024-02-26T05:45:21;6.10;73.30
85036;DHT22;75357;49.780;9.448;2024-02-26T05:47:49;6.10;73.30
85036;DHT22;75357;49.780;9.448;2024-02-26T05:50:19;6.10;72.70
85036;DHT22;75357;49.780;9.448;2024-02-26T05:52:47;6.20;72.70
85036;DHT22;75357;49.780;9.448;2024-02-26T05:55:15;6.20;72.60
85036;DHT22;75357;49.780;9.448;2024-02-26T05:57:43;6.20;72.40
85036;DHT22;75357;49.780;9.448;2024-02-26T06:00:12;6.20;72.70
85036;DHT22;75357;49.780;9.448;2024-02-26T06:02:41;6.20;72.40
85036;DHT22;75357;49.780;9.448;2024-02-26T06:05:10;6.20;72.20
85036;DHT22;75357;49.780;9.448;2024-02-26T06:07:39;6.30;72.40
85036;DHT22;75357;49.780;9.448;2024-02-26T06:10:08;6.30;72.20
85036;DHT22;75357;49.780;9.448;2024-02-26T06:12:36;6.40;72.40
85036;DHT22;75357;49.780;9.448;2024-02-26T06:15:08;6.40;72.10
85036;DHT22;75357;49.780;9.448;2024-02-26T06:17:36;6.40;72.10
85036;DHT22;75357;49.780;9.448;2024-02-26T06:20:05;6.40;72.10
85036;DHT22;75357;49.780;9.448;2024-02-26T06:22:40;6.40;72.20
85036;DHT22;75357;49.780;9.448;2024-02-26T06:25:09;6.40;72.50
85036;DHT22;75357;49.780;9.448;2024-02-26T06:27:37;6.40;72.60
85036;DHT22;75357;49.780;9.448;2024-02-26T06:30:06;6.40;72.70
85036;DHT22;75357;49.780;9.448;2024-02-26T06:32:35;6.50;72.90
85036;DHT22;75357;49.780;9.448;2024-02-26T06:35:04;6.50;73.00
85036;DHT22;75357;49.780;9.448;2024-02-26T06:37:37;6.50;73.50
85036;DHT22;75357;49.780;9.448;2024-02-26T06:40:07;6.50;74.00
85036;DHT22;75357;49.780;9.448;2024-02-26T06:42:36;6.50;73.70
85036;DHT22;75357;49.780;9.448;2024-02-26T06:45:08;6.50;74.00
85036;DHT22;75357;49.780;9.448;2024-02-26T06:47:36;6.50;73.80
85036;DHT22;75357;49.780;9.448;2024-02-26T06:50:05;6.50;75.10
85036;DHT22;75357;49.780;9.448;2024-02-26T06:52:33;6.50;74.50
85036;DHT22;75357;49.780;9.448;2024-02-26T06:55:02;6.50;75.10
85036;DHT22;75357;49.780;9.448;2024-02-26T06:57:33;6.60;75.50
85036;DHT22;75357;49.780;9.448;2024-02-26T07:00:01;6.60;75.90
85036;DHT22;75357;49.780;9.448;2024-02-26T07:02:31;6.60;76.50
85036;DHT22;75357;49.780;9.448;2024-02-26T07:05:01;6.60;76.50
85036;DHT22;75357;49.780;9.448;2024-02-26T07:07:33;6.60;76.80
85036;DHT22;75357;49.780;9.448;2024-02-26T07:10:02;6.60;77.00
85036;DHT22;75357;49.780;9.448;2024-02-26T07:12:34;6.60;76.90
85036;DHT22;75357;49.780;9.448;2024-02-26T07:15:02;6.70;77.50
85036;DHT22;75357;49.780;9.448;2024-02-26T07:17:32;6.70;77.60
85036;DHT22;75357;49.780;9.448;2024-02-26T07:20:01;6.70;77.70
85036;DHT22;75357;49.780;9.448;2024-02-26T07:22:35;6.80;77.40
85036;DHT22;75357;49.780;9.448;2024-02-26T07:25:04;6.70;77.90
85036;DHT22;75357;49.780;9.448;2024-02-26T07:27:36;6.60;78.80
85036;DHT22;75357;49.780;9.448;2024-02-26T07:30:05;6.60;79.60
85036;DHT22;75357;49.780;9.448;2024-02-26T07:32:34;6.60;80.00
85036;DHT22;75357;49.780;9.448;2024-02-26T07:35:03;6.60;80.50
85036;DHT22;75357;49.780;9.448;2024-02-26T07:37:32;6.60;80.80
85036;DHT22;75357;49.780;9.448;2024-02-26T07:40:00;6.50;81.60
85036;DHT22;75357;49.780;9.448;2024-02-26T07:42:28;6.40;82.20
85036;DHT22;75357;49.780;9.448;2024-02-26T07:44:58;6.50;81.90
85036;DHT22;75357;49.780;9.448;2024-02-26T07:47:26;6.60;82.10
85036;DHT22;75357;49.780;9.448;2024-02-26T07:49:54;6.60;81.50
85036;DHT22;75357;49.780;9.448;2024-02-26T07:52:22;6.70;81.60
85036;DHT22;75357;49.780;9.448;2024-02-26T07:54:50;6.70;81.40
85036;DHT22;75357;49.780;9.448;2024-02-26T07:57:18;6.80;81.70
85036;DHT22;75357;49.780;9.448;2024-02-26T07:59:48;6.80;81.80
85036;DHT22;75357;49.780;9.448;2024-02-26T08:02:18;6.90;81.50
85036;DHT22;75357;49.780;9.448;2024-02-26T08:04:46;7.00;81.20
85036;DHT22;75357;49.780;9.448;2024-02-26T08:07:15;7.00;80.80
85036;DHT22;75357;49.780;9.448;2024-02-26T08:09:43;7.10;80.70
85036;DHT22;75357;49.780;9.448;2024-02-26T08:12:13;7.20;80.30
85036;DHT22;75357;49.780;9.448;2024-02-26T08:14:41;7.30;80.40
85036;DHT22;75357;49.780;9.448;2024-02-26T08:17:10;7.40;80.30
85036;DHT22;75357;49.780;9.448;2024-02-26T08:19:40;7.40;80.20
85036;DHT22;75357;49.780;9.448;2024-02-26T08:22:08;7.40;80.00
85036;DHT22;75357;49.780;9.448;2024-02-26T08:24:42;7.50;79.30
85036;DHT22;75357;49.780;9.448;2024-02-26T08:27:11;7.50;79.30
85036;DHT22;75357;49.780;9.448;2024-02-26T08:29:39;7.60;79.90
85036;DHT22;75357;49.780;9.448;2024-02-26T08:32:07;7.60;80.10
85036;DHT22;75357;49.780;9.448;2024-02-26T08:34:35;7.60;80.20
85036;DHT22;75357;49.780;9.448;2024-02-26T08:37:06;7.70;80.10
85036;DHT22;75357;49.780;9.448;2024-02-26T08:39:34;7.60;80.00
85036;DHT22;75357;49.780;9.448;2024-02-26T08:42:02;7.60;79.40
85036;DHT22;75357;49.780;9.448;2024-02-26T08:44:30;7.30;80.90
85036;DHT22;75357;49.780;9.448;2024-02-26T08:46:59;7.30;82.00
85036;DHT22;75357;49.780;9.448;2024-02-26T08:49:28;7.30;81.00
85036;DHT22;75357;49.780;9.448;2024-02-26T08:51:59;7.20;81.20
85036;DHT22;75357;49.780;9.448;2024-02-26T08:54:29;7.20;82.50
85036;DHT22;75357;49.780;9.448;2024-02-26T08:56:58;7.30;81.50
85036;DHT22;75357;49.780;9.448;2024-02-26T08:59:27;7.50;81.60
85036;DHT22;75357;49.780;9.448;2024-02-26T09:01:55;7.60;80.60
85036;DHT22;75357;49.780;9.448;2024-02-26T09:04:23;7.70;80.60
85036;DHT22;75357;49.780;9.448;2024-02-26T09:06:51;7.80;80.60
85036;DHT22;75357;49.780;9.448;2024-02-26T09:09:19;7.90;80.40
85036;DHT22;75357;49.780;9.448;2024-02-26T09:11:50;8.00;79.30
85036;DHT22;75357;49.780;9.448;2024-02-26T09:14:19;8.00;78.90
85036;DHT22;75357;49.780;9.448;2024-02-26T09:16:49;8.10;78.20
85036;DHT22;75357;49.780;9.448;2024-02-26T09:19:18;8.30;77.90
85036;DHT22;75357;49.780;9.448;2024-02-26T09:21:46;8.40;77.50
85036;DHT22;75357;49.780;9.448;2024-02-26T09:24:14;8.40;76.20
85036;DHT22;75357;49.780;9.448;2024-02-26T09:26:43;8.40;76.50
85036;DHT22;75357;49.780;9.448;2024-02-26T09:29:12;8.40;75.90
85036;DHT22;75357;49.780;9.448;2024-02-26T09:31:40;8.60;77.20
85036;DHT22;75357;49.780;9.448;2024-02-26T09:34:09;8.80;77.20
85036;DHT22;75357;49.780;9.448;2024-02-26T09:36:37;9.00;77.40
85036;DHT22;75357;49.780;9.448;2024-02-26T09:39:07;9.10;76.10
85036;DHT22;75357;49.780;9.448;2024-02-26T09:41:39;9.20;75.20
85036;DHT22;75357;49.780;9.448;2024-02-26T09:44:09;9.20;74.30
85036;DHT22;75357;49.780;9.448;2024-02-26T09:46:39;9.10;74.80
85036;DHT22;75357;49.780;9.448;2024-02-26T09:49:08;9.10;74.40
85036;DHT22;75357;49.780;9.448;2024-02-26T09:51:37;9.20;75.60
85036;DHT22;75357;49.780;9.448;2024-02-26T09:54:07;9.40;72.80
85036;DHT22;75357;49.780;9.448;2024-02-26T09:56:39;9.30;72.90
85036;DHT22;75357;49.780;9.448;2024-02-26T09:59:22;9.20;73.60
85036;DHT22;75357;49.780;9.448;2024-02-26T10:01:53;9.20;75.50
85036;DHT22;75357;49.780;9.448;2024-02-26T10:04:21;9.30;75.40
85036;DHT22;75357;49.780;9.448;2024-02-26T10:06:51;9.30;73.10
85036;DHT22;75357;49.780;9.448;2024-02-26T10:09:20;9.00;73.50
85036;DHT22;75357;49.780;9.448;2024-02-26T10:11:49;9.00;73.70
85036;DHT22;75357;49.780;9.448;2024-02-26T10:14:17;8.80;74.00
85036;DHT22;75357;49.780;9.448;2024-02-26T10:16:45;8.90;75.90
85036;DHT22;75357;49.780;9.448;2024-02-26T10:19:25;9.10;74.20
85036;DHT22;75357;49.780;9.448;2024-02-26T10:21:56;9.40;74.40
85036;DHT22;75357;49.780;9.448;2024-02-26T10:24:25;9.50;74.20
85036;DHT22;75357;49.780;9.448;2024-02-26T10:26:55;9.60;72.90
85036;DHT22;75357;49.780;9.448;2024-02-26T10:29:25;9.50;73.20
85036;DHT22;75357;49.780;9.448;2024-02-26T10:31:53;9.30;73.40
85036;DHT22;75357;49.780;9.448;2024-02-26T10:34:23;9.40;74.60
85036;DHT22;75357;49.780;9.448;2024-02-26T10:36:53;9.50;75.10
85036;DHT22;75357;49.780;9.448;2024-02-26T10:39:21;9.60;73.80
85036;DHT22;75357;49.780;9.448;2024-02-26T10:41:50;9.50;71.80
85036;DHT22;75357;49.780;9.448;2024-02-26T10:44:18;9.40;72.50
85036;DHT22;75357;49.780;9.448;2024-02-26T10:46:47;9.60;72.80
85036;DHT22;75357;49.780;9.448;2024-02-26T10:49:16;9.60;73.30
85036;DHT22;75357;49.780;9.448;2024-02-26T10:51:54;9.80;72.20
85036;DHT22;75357;49.780;9.448;2024-02-26T10:54:25;9.80;72.00
85036;DHT22;75357;49.780;9.448;2024-02-26T10:56:56;9.50;72.50
85036;DHT22;75357;49.780;9.448;2024-02-26T10:59:25;9.30;73.80
85036;DHT22;75357;49.780;9.448;2024-02-26T11:01:54;9.30;73.60
85036;DHT22;75357;49.780;9.448;2024-02-26T11:04:23;9.40;72.80
85036;DHT22;75357;49.780;9.448;2024-02-26T11:06:57;9.60;74.70
85036;DHT22;75357;49.780;9.448;2024-02-26T11:09:26;9.90;72.10
85036;DHT22;75357;49.780;9.448;2024-02-26T11:11:57;10.10;69.60
85036;DHT22;75357;49.780;9.448;2024-02-26T11:14:26;10.10;70.40
85036;DHT22;75357;49.780;9.448;2024-02-26T11:16:58;9.50;72.00
85036;DHT22;75357;49.780;9.448;2024-02-26T11:19:28;9.70;72.70
85036;DHT22;75357;49.780;9.448;2024-02-26T11:22:04;10.00;70.80
85036;DHT22;75357;49.780;9.448;2024-02-26T11:24:47;10.40;70.60
85036;DHT22;75357;49.780;9.448;2024-02-26T11:27:17;10.80;68.90
85036;DHT22;75357;49.780;9.448;2024-02-26T11:29:50;10.80;69.50
85036;DHT22;75357;49.780;9.448;2024-02-26T11:32:20;10.90;67.30
85036;DHT22;75357;49.780;9.448;2024-02-26T11:34:49;10.80;68.60
85036;DHT22;75357;49.780;9.448;2024-02-26T11:37:19;10.50;70.30
85036;DHT22;75357;49.780;9.448;2024-02-26T11:39:48;10.50;68.40
85036;DHT22;75357;49.780;9.448;2024-02-26T11:42:23;10.70;68.80
85036;DHT22;75357;49.780;9.448;2024-02-26T11:44:52;10.60;69.10
85036;DHT22;75357;49.780;9.448;2024-02-26T11:47:21;10.60;69.30
85036;DHT22;75357;49.780;9.448;2024-02-26T11:49:50;10.60;69.20
85036;DHT22;75357;49.780;9.448;2024-02-26T11:52:20;10.50;68.70
85036;DHT22;75357;49.780;9.448;2024-02-26T11:54:49;10.30;69.10
85036;DHT22;75357;49.780;9.448;2024-02-26T11:57:24;10.30;68.80
85036;DHT22;75357;49.780;9.448;2024-02-26T11:59:52;10.30;68.90
85036;DHT22;75357;49.780;9.448;2024-02-26T12:02:40;10.70;71.80
85036;DHT22;75357;49.780;9.448;2024-02-26T12:05:11;11.20;68.10
85036;DHT22;75357;49.780;9.448;2024-02-26T12:07:43;11.30;66.50
85036;DHT22;75357;49.780;9.448;2024-02-26T12:10:27;11.10;66.40
85036;DHT22;75357;49.780;9.448;2024-02-26T12:12:59;10.90;68.20
85036;DHT22;75357;49.780;9.448;2024-02-26T12:15:32;11.20;67.30
85036;DHT22;75357;49.780;9.448;2024-02-26T12:18:05;11.50;66.60
85036;DHT22;75357;49.780;9.448;2024-02-26T12:20:35;11.60;65.70
85036;DHT22;75357;49.780;9.448;2024-02-26T12:23:04;11.80;65.40
85036;DHT22;75357;49.780;9.448;2024-02-26T12:25:33;11.70;66.10
85036;DHT22;75357;49.780;9.448;2024-02-26T12:28:01;11.70;65.30
85036;DHT22;75357;49.780;9.448;2024-02-26T12:30:31;11.40;65.70
85036;DHT22;75357;49.780;9.448;2024-02-26T12:32:59;11.00;66.70
85036;DHT22;75357;49.780;9.448;2024-02-26T12:35:28;11.10;66.00
85036;DHT22;75357;49.780;9.448;2024-02-26T12:37:59;11.10;66.40
85036;DHT22;75357;49.780;9.448;2024-02-26T12:40:33;11.10;66.80
85036;DHT22;75357;49.780;9.448;2024-02-26T12:43:01;11.10;66.90
85036;DHT22;75357;49.780;9.448;2024-02-26T12:45:29;11.20;66.70
85036;DHT22;75357;49.780;9.448;2024-02-26T12:47:59;11.20;66.00
85036;DHT22;75357;49.780;9.448;2024-02-26T12:50:28;11.10;67.20
85036;DHT22;75357;49.780;9.448;2024-02-26T12:52:56;11.30;65.20
85036;DHT22;75357;49.780;9.448;2024-02-26T12:55:25;11.50;65.70
85036;DHT22;75357;49.780;9.448;2024-02-26T12:57:55;11.50;64.70
85036;DHT22;75357;49.780;9.448;2024-02-26T13:00:25;11.70;64.60
85036;DHT22;75357;49.780;9.448;2024-02-26T13:03:00;11.90;64.50
85036;DHT22;75357;49.780;9.448;2024-02-26T13:05:28;12.10;64.20
85036;DHT22;75357;49.780;9.448;2024-02-26T13:07:57;12.00;63.50
85036;DHT22;75357;49.780;9.448;2024-02-26T13:10:25;11.90;63.40
85036;DHT22;75357;49.780;9.448;2024-02-26T13:12:56;11.90;63.90
85036;DHT22;75357;49.780;9.448;2024-02-26T13:15:25;12.10;64.70
85036;DHT22;75357;49.780;9.448;2024-02-26T13:17:53;12.20;63.80
85036;DHT22;75357;49.780;9.448;2024-02-26T13:20:27;12.20;63.10
85036;DHT22;75357;49.780;9.448;2024-02-26T13:23:02;12.20;61.80
85036;DHT22;75357;49.780;9.448;2024-02-26T13:25:32;11.90;63.20
85036;DHT22;75357;49.780;9.448;2024-02-26T13:28:14;11.80;63.00
85036;DHT22;75357;49.780;9.448;2024-02-26T13:30:50;11.80;63.80
85036;DHT22;75357;49.780;9.448;2024-02-26T13:33:19;12.10;64.20
85036;DHT22;75357;49.780;9.448;2024-02-26T13:35:47;12.40;64.20
85036;DHT22;75357;49.780;9.448;2024-02-26T13:38:15;12.70;62.50
85036;DHT22;75357;49.780;9.448;2024-02-26T13:40:44;12.80;61.90
85036;DHT22;75357;49.780;9.448;2024-02-26T13:43:14;12.90;61.30
85036;DHT22;75357;49.780;9.448;2024-02-26T13:45:42;12.90;61.00
85036;DHT22;75357;49.780;9.448;2024-02-26T13:48:11;12.70;61.30
85036;DHT22;75357;49.780;9.448;2024-02-26T13:50:40;12.50;62.10
85036;DHT22;75357;49.780;9.448;2024-02-26T13:53:10;12.40;62.30
85036;DHT22;75357;49.780;9.448;2024-02-26T13:55:39;12.20;63.10
85036;DHT22;75357;49.780;9.448;2024-02-26T13:58:11;12.20;62.70
85036;DHT22;75357;49.780;9.448;2024-02-26T14:00:42;12.30;62.50
85036;DHT22;75357;49.780;9.448;2024-02-26T14:03:10;12.50;61.70
85036;DHT22;75357;49.780;9.448;2024-02-26T14:05:39;12.50;61.70
85036;DHT22;75357;49.780;9.448;2024-02-26T14:08:11;12.60;62.40
85036;DHT22;75357;49.780;9.448;2024-02-26T14:10:40;12.70;62.10
85036;DHT22;75357;49.780;9.448;2024-02-26T14:13:08;12.70;61.70
85036;DHT22;75357;49.780;9.448;2024-02-26T14:15:37;12.70;62.50
85036;DHT22;75357;49.780;9.448;2024-02-26T14:18:08;12.70;61.40
85036;DHT22;75357;49.780;9.448;2024-02-26T14:20:37;12.80;62.30
85036;DHT22;75357;49.780;9.448;2024-02-26T14:23:05;12.90;61.00
85036;DHT22;75357;49.780;9.448;2024-02-26T14:25:33;13.00;59.10
85036;DHT22;75357;49.780;9.448;2024-02-26T14:28:02;12.90;59.40
85036;DHT22;75357;49.780;9.448;2024-02-26T14:30:30;12.90;60.90
85036;DHT22;75357;49.780;9.448;2024-02-26T14:32:58;12.80;59.70
85036;DHT22;75357;49.780;9.448;2024-02-26T14:35:27;12.80;59.20
85036;DHT22;75357;49.780;9.448;2024-02-26T14:37:56;12.80;59.60
85036;DHT22;75357;49.780;9.448;2024-02-26T14:40:28;12.70;59.70
85036;DHT22;75357;49.780;9.448;2024-02-26T14:42:57;12.60;59.50
85036;DHT22;75357;49.780;9.448;2024-02-26T14:45:26;12.60;60.30
85036;DHT22;75357;49.780;9.448;2024-02-26T14:47:54;12.50;60.00
85036;DHT22;75357;49.780;9.448;2024-02-26T14:50:22;12.50;60.40
85036;DHT22;75357;49.780;9.448;2024-02-26T14:52:52;12.50;59.60
85036;DHT22;75357;49.780;9.448;2024-02-26T14:55:20;12.30;60.40
85036;DHT22;75357;49.780;9.448;2024-02-26T14:57:48;12.10;60.10
85036;DHT22;75357;49.780;9.448;2024-02-26T15:00:17;12.00;60.20
85036;DHT22;75357;49.780;9.448;2024-02-26T15:02:45;12.00;60.60
85036;DHT22;75357;49.780;9.448;2024-02-26T15:05:14;12.00;60.20
85036;DHT22;75357;49.780;9.448;2024-02-26T15:07:43;11.90;60.90
85036;DHT22;75357;49.780;9.448;2024-02-26T15:10:13;12.00;61.30
85036;DHT22;75357;49.780;9.448;2024-02-26T15:12:42;12.00;60.20
85036;DHT22;75357;49.780;9.448;2024-02-26T15:15:10;12.00;60.80
85036;DHT22;75357;49.780;9.448;2024-02-26T15:17:38;12.00;60.40
85036;DHT22;75357;49.780;9.448;2024-02-26T15:20:08;12.10;60.60
85036;DHT22;75357;49.780;9.448;2024-02-26T15:22:38;12.10;60.10
85036;DHT22;75357;49.780;9.448;2024-02-26T15:25:07;12.20;60.50
85036;DHT22;75357;49.780;9.448;2024-02-26T15:27:39;12.10;60.20
85036;DHT22;75357;49.780;9.448;2024-02-26T15:30:08;12.00;60.70
85036;DHT22;75357;49.780;9.448;2024-02-26T15:32:36;12.00;60.60
85036;DHT22;75357;49.780;9.448;2024-02-26T15:35:05;11.90;60.80
85036;DHT22;75357;49.780;9.448;2024-02-26T15:37:33;11.90;60.80
85036;DHT22;75357;49.780;9.448;2024-02-26T15:40:02;11.80;60.60
85036;DHT22;75357;49.780;9.448;2024-02-26T15:42:30;11.80;60.60
85036;DHT22;75357;49.780;9.448;2024-02-26T15:45:00;11.70;60.70
85036;DHT22;75357;49.780;9.448;2024-02-26T15:47:29;11.70;60.30
85036;DHT22;75357;49.780;9.448;2024-02-26T15:49:58;11.60;60.20
85036;DHT22;75357;49.780;9.448;2024-02-26T15:52:28;11.60;60.60
85036;DHT22;75357;49.780;9.448;2024-02-26T15:54:56;11.60;60.70